createdAt,value
2023-05-15T00:00:10.665Z,101461.41
2023-05-15T00:02:38.860Z,101459.47
2023-05-15T00:05:07.908Z,101478.56
2023-05-15T00:07:36.009Z,101464.69
2023-05-15T00:10:03.470Z,101469.00
2023-05-15T00:12:30.647Z,101460.19
2023-05-15T00:14:57.762Z,101464.59
2023-05-15T00:17:25.838Z,101457.41
2023-05-15T00:19:57.549Z,101443.31
2023-05-15T00:22:25.302Z,101465.91
2023-05-15T00:24:52.824Z,101458.88
2023-05-15T00:27:19.955Z,101452.91
2023-05-15T00:29:47.095Z,101451.13
2023-05-15T00:32:14.211Z,101450.13
2023-05-15T00:34:41.333Z,101457.06
2023-05-15T00:37:08.559Z,101446.69
2023-05-15T00:39:36.389Z,101447.56
2023-05-15T00:42:04.702Z,101447.41
2023-05-15T00:44:32.215Z,101444.78
2023-05-15T00:47:01.556Z,101439.34
2023-05-15T00:49:29.844Z,101444.59
2023-05-15T00:51:58.158Z,101434.25
2023-05-15T00:54:25.553Z,101428.09
2023-05-15T00:56:55.702Z,101432.56
2023-05-15T00:59:25.911Z,101436.06
2023-05-15T01:01:53.168Z,101431.88
2023-05-15T01:04:21.931Z,101425.69
2023-05-15T01:06:49.406Z,101431.75
2023-05-15T01:09:17.748Z,101437.63
2023-05-15T01:11:47.444Z,101440.28
2023-05-15T01:14:14.548Z,101435.75
2023-05-15T01:16:41.730Z,101435.78
2023-05-15T01:19:08.875Z,101431.56
2023-05-15T01:21:38.511Z,101432.44
2023-05-15T01:24:24.656Z,101421.03
2023-05-15T01:27:20.450Z,101420.31
2023-05-15T01:30:07.892Z,101427.28
2023-05-15T01:32:51.044Z,101419.53
2023-05-15T01:35:24.313Z,101423.00
2023-05-15T01:37:57.460Z,101416.19
2023-05-15T01:40:26.359Z,101412.72
2023-05-15T01:42:56.159Z,101415.31
2023-05-15T01:45:25.422Z,101406.59
2023-05-15T01:47:54.471Z,101408.28
2023-05-15T01:50:22.168Z,101404.72
2023-05-15T01:52:52.408Z,101401.88
2023-05-15T01:55:23.028Z,101401.03
2023-05-15T01:57:52.190Z,101405.19
2023-05-15T02:00:21.085Z,101409.22
2023-05-15T02:02:49.655Z,101408.06
2023-05-15T02:05:17.977Z,101407.88
2023-05-15T02:07:45.906Z,101413.13
2023-05-15T02:10:13.762Z,101419.03
2023-05-15T02:12:42.461Z,101418.91
2023-05-15T02:15:11.469Z,101421.59
2023-05-15T02:17:38.894Z,101413.06
2023-05-15T02:20:07.650Z,101414.91
2023-05-15T02:22:34.750Z,101420.97
2023-05-15T02:25:02.294Z,101417.50
2023-05-15T02:27:36.497Z,101415.75
2023-05-15T02:30:41.449Z,101421.88
2023-05-15T02:33:33.132Z,101419.25
2023-05-15T02:36:07.551Z,101420.09
2023-05-15T02:39:03.837Z,101420.72
2023-05-15T02:41:33.251Z,101418.19
2023-05-15T02:44:01.508Z,101412.91
2023-05-15T02:46:29.275Z,101413.00
2023-05-15T02:48:56.926Z,101412.06
2023-05-15T02:51:24.014Z,101412.72
2023-05-15T02:53:52.179Z,101415.75
2023-05-15T02:56:19.222Z,101423.63
2023-05-15T02:58:46.301Z,101410.56
2023-05-15T03:01:13.496Z,101416.59
2023-05-15T03:03:40.697Z,101416.44
2023-05-15T03:06:07.809Z,101417.41
2023-05-15T03:08:35.042Z,101407.06
2023-05-15T03:11:02.117Z,101402.88
2023-05-15T03:13:29.272Z,101401.84
2023-05-15T03:15:56.404Z,101404.47
2023-05-15T03:18:23.433Z,101406.88
2023-05-15T03:20:53.024Z,101410.22
2023-05-15T03:23:20.123Z,101413.47
2023-05-15T03:25:47.349Z,101409.94
2023-05-15T03:28:14.456Z,101397.13
2023-05-15T03:30:44.421Z,101399.13
2023-05-15T03:33:11.563Z,101393.94
2023-05-15T03:35:38.707Z,101403.00
2023-05-15T03:38:05.978Z,101402.69
2023-05-15T03:40:33.519Z,101399.38
2023-05-15T03:43:00.621Z,101404.16
2023-05-15T03:45:28.078Z,101399.88
2023-05-15T03:47:55.404Z,101392.97
2023-05-15T03:50:22.640Z,101387.09
2023-05-15T03:52:49.714Z,101391.50
2023-05-15T03:55:16.867Z,101387.31
2023-05-15T03:57:44.051Z,101381.06
2023-05-15T04:00:12.115Z,101389.56
2023-05-15T04:02:39.559Z,101398.91
2023-05-15T04:05:08.288Z,101409.16
2023-05-15T04:07:37.366Z,101387.34
2023-05-15T04:10:05.676Z,101402.03
2023-05-15T04:12:35.681Z,101408.91
2023-05-15T04:15:22.765Z,101403.56
2023-05-15T04:17:53.686Z,101403.53
2023-05-15T04:20:22.810Z,101407.13
2023-05-15T04:22:50.660Z,101410.53
2023-05-15T04:25:20.198Z,101402.84
2023-05-15T04:27:47.450Z,101410.38
2023-05-15T04:30:14.696Z,101404.38
2023-05-15T04:32:42.400Z,101404.38
2023-05-15T04:35:12.124Z,101399.09
2023-05-15T04:37:40.519Z,101405.78
2023-05-15T04:40:08.715Z,101399.31
2023-05-15T04:42:38.851Z,101407.09
2023-05-15T04:45:07.902Z,101414.84
2023-05-15T04:47:36.166Z,101417.78
2023-05-15T04:50:03.941Z,101422.06
2023-05-15T04:52:32.220Z,101426.28
2023-05-15T04:54:59.340Z,101421.91
2023-05-15T04:57:26.755Z,101422.25
2023-05-15T04:59:54.091Z,101431.06
2023-05-15T05:02:22.650Z,101425.97
2023-05-15T05:04:50.147Z,101421.81
2023-05-15T05:07:17.706Z,101416.63
2023-05-15T05:09:45.100Z,101426.09
2023-05-15T05:12:12.222Z,101427.19
2023-05-15T05:14:42.092Z,101432.25
2023-05-15T05:17:09.427Z,101427.75
2023-05-15T05:19:37.327Z,101442.59
2023-05-15T05:22:05.773Z,101432.28
2023-05-15T05:24:36.281Z,101434.25
2023-05-15T05:27:04.396Z,101430.84
2023-05-15T05:29:31.754Z,101428.53
2023-05-15T05:31:59.179Z,101427.97
2023-05-15T05:34:26.456Z,101426.91
2023-05-15T05:36:53.629Z,101427.25
2023-05-15T05:39:20.903Z,101405.44
2023-05-15T05:41:48.009Z,101429.88
2023-05-15T05:44:15.494Z,101428.00
2023-05-15T05:46:42.887Z,101416.91
2023-05-15T05:49:10.067Z,101420.22
2023-05-15T05:51:38.596Z,101422.53
2023-05-15T05:54:06.376Z,101430.66
2023-05-15T05:56:33.745Z,101416.66
2023-05-15T05:59:01.972Z,101427.31
2023-05-15T06:01:29.485Z,101430.00
2023-05-15T06:03:57.558Z,101428.75
2023-05-15T06:06:24.966Z,101429.75
2023-05-15T06:08:54.154Z,101421.88
2023-05-15T06:11:24.984Z,101422.25
2023-05-15T06:13:52.720Z,101420.66
2023-05-15T06:16:20.016Z,101421.13
2023-05-15T06:18:47.241Z,101423.97
2023-05-15T06:21:14.430Z,101417.91
2023-05-15T06:23:41.588Z,101423.31
2023-05-15T06:26:08.852Z,101422.28
2023-05-15T06:28:36.462Z,101420.56
2023-05-15T06:31:03.899Z,101432.03
2023-05-15T06:33:31.380Z,101423.47
2023-05-15T06:35:58.594Z,101420.00
2023-05-15T06:38:25.847Z,101422.38
2023-05-15T06:40:53.070Z,101406.41
2023-05-15T06:43:20.162Z,101420.47
2023-05-15T06:45:47.306Z,101424.00
2023-05-15T06:48:14.499Z,101412.09
2023-05-15T06:50:41.626Z,101428.72
2023-05-15T06:53:08.696Z,101422.19
2023-05-15T06:55:38.090Z,101424.28
2023-05-15T06:58:06.374Z,101427.16
2023-05-15T07:00:33.814Z,101432.28
2023-05-15T07:03:00.959Z,101429.19
2023-05-15T07:05:28.136Z,101431.88
2023-05-15T07:07:55.359Z,101428.44
2023-05-15T07:10:22.705Z,101419.72
2023-05-15T07:12:50.135Z,101431.25
2023-05-15T07:15:17.671Z,101423.09
2023-05-15T07:17:44.944Z,101415.13
2023-05-15T07:20:12.266Z,101433.78
2023-05-15T07:22:48.345Z,101431.34
2023-05-15T07:25:23.973Z,101418.81
2023-05-15T07:27:51.574Z,101424.06
2023-05-15T07:30:19.379Z,101420.66
2023-05-15T07:32:46.603Z,101428.38
2023-05-15T07:35:13.966Z,101423.75
2023-05-15T07:37:41.469Z,101432.56
2023-05-15T07:40:09.112Z,101425.66
2023-05-15T07:42:36.740Z,101435.22
2023-05-15T07:45:04.485Z,101420.63
2023-05-15T07:47:31.644Z,101432.22
2023-05-15T07:49:58.770Z,101427.38
2023-05-15T07:52:25.988Z,101418.81
2023-05-15T07:54:53.082Z,101423.28
2023-05-15T07:57:20.696Z,101432.34
2023-05-15T07:59:47.793Z,101422.06
2023-05-15T08:02:14.962Z,101416.19
2023-05-15T08:04:42.120Z,101419.69
2023-05-15T08:07:09.308Z,101413.03
2023-05-15T08:09:36.810Z,101417.41
2023-05-15T08:12:29.902Z,101422.75
2023-05-15T08:14:57.146Z,101418.50
2023-05-15T08:17:25.566Z,101427.44
2023-05-15T08:19:53.025Z,101417.56
2023-05-15T08:22:20.158Z,101423.28
2023-05-15T08:24:47.377Z,101418.06
2023-05-15T08:27:14.970Z,101417.31
2023-05-15T08:29:42.135Z,101409.44
2023-05-15T08:32:09.332Z,101429.47
2023-05-15T08:34:36.700Z,101426.78
2023-05-15T08:37:06.599Z,101431.13
2023-05-15T08:39:33.880Z,101419.72
2023-05-15T08:42:10.911Z,101428.53
2023-05-15T08:44:39.462Z,101425.63
2023-05-15T08:47:07.752Z,101417.97
2023-05-15T08:50:00.692Z,101424.88
2023-05-15T08:52:28.707Z,101420.34
2023-05-15T08:54:56.197Z,101410.84
2023-05-15T08:57:23.546Z,101416.72
2023-05-15T08:59:52.792Z,101416.81
2023-05-15T09:02:20.810Z,101420.34
2023-05-15T09:04:47.911Z,101417.69
2023-05-15T09:07:15.925Z,101425.66
2023-05-15T09:09:45.045Z,101414.19
2023-05-15T09:12:15.335Z,101422.31
2023-05-15T09:14:43.412Z,101414.69
2023-05-15T09:17:14.059Z,101426.94
2023-05-15T09:19:42.278Z,101425.16
2023-05-15T09:22:17.776Z,101432.97
2023-05-15T09:24:48.296Z,101425.91
2023-05-15T09:27:15.558Z,101431.91
2023-05-15T09:29:42.780Z,101431.81
2023-05-15T09:32:12.829Z,101426.63
2023-05-15T09:34:42.028Z,101425.94
2023-05-15T09:37:11.027Z,101428.66
2023-05-15T09:39:42.948Z,101427.00
2023-05-15T09:42:13.709Z,101431.38
2023-05-15T09:44:42.923Z,101432.25
2023-05-15T09:47:11.990Z,101427.66
2023-05-15T09:49:39.647Z,101422.56
2023-05-15T09:52:13.764Z,101423.38
2023-05-15T09:54:40.883Z,101424.41
2023-05-15T09:57:13.666Z,101423.63
2023-05-15T09:59:47.845Z,101416.78
2023-05-15T10:02:32.657Z,101420.13
2023-05-15T10:05:00.225Z,101425.34
2023-05-15T10:07:32.224Z,101426.19
2023-05-15T10:10:00.429Z,101432.13
2023-05-15T10:12:28.969Z,101430.34
2023-05-15T10:14:57.273Z,101425.03
2023-05-15T10:17:24.882Z,101427.56
2023-05-15T10:19:58.323Z,101422.34
2023-05-15T10:22:29.779Z,101426.53
2023-05-15T10:25:03.486Z,101431.66
2023-05-15T10:27:31.191Z,101429.09
2023-05-15T10:29:59.382Z,101432.44
2023-05-15T10:32:27.361Z,101434.25
2023-05-15T10:34:54.781Z,101430.59
2023-05-15T10:37:22.376Z,101436.75
2023-05-15T10:39:50.789Z,101433.34
2023-05-15T10:42:18.064Z,101430.81
2023-05-15T10:44:45.256Z,101435.94
2023-05-15T10:47:12.618Z,101436.75
2023-05-15T10:49:39.997Z,101426.19
2023-05-15T10:52:09.279Z,101433.97
2023-05-15T10:54:37.584Z,101429.56
2023-05-15T10:57:05.429Z,101429.63
2023-05-15T10:59:34.917Z,101425.88
2023-05-15T11:02:21.413Z,101426.13
2023-05-15T11:04:48.805Z,101421.75
2023-05-15T11:07:17.961Z,101420.06
2023-05-15T11:09:45.167Z,101422.63
2023-05-15T11:12:12.864Z,101418.91
2023-05-15T11:14:42.392Z,101414.78
2023-05-15T11:17:11.742Z,101415.66
2023-05-15T11:19:40.730Z,101420.97
2023-05-15T11:22:21.750Z,101413.81
2023-05-15T11:25:09.467Z,101420.00
2023-05-15T11:27:43.886Z,101422.63
2023-05-15T11:30:23.058Z,101421.06
2023-05-15T11:33:00.159Z,101430.47
2023-05-15T11:35:33.611Z,101423.38
2023-05-15T11:38:09.711Z,101430.38
2023-05-15T11:40:52.888Z,101419.69
2023-05-15T11:43:29.458Z,101416.25
2023-05-15T11:45:58.759Z,101411.09
2023-05-15T11:48:32.158Z,101407.59
2023-05-15T11:51:01.554Z,101416.34
2023-05-15T11:53:30.111Z,101399.88
2023-05-15T11:55:57.264Z,101427.03
2023-05-15T11:58:25.912Z,101422.66
2023-05-15T12:00:53.823Z,101413.91
2023-05-15T12:03:27.483Z,101409.56
2023-05-15T12:05:59.449Z,101416.50
2023-05-15T12:08:32.569Z,101407.19
2023-05-15T12:11:00.786Z,101409.03
2023-05-15T12:13:28.370Z,101415.97
2023-05-15T12:15:56.020Z,101410.78
2023-05-15T12:18:23.767Z,101416.78
2023-05-15T12:20:54.476Z,101412.44
2023-05-15T12:23:23.945Z,101412.53
2023-05-15T12:25:57.777Z,101415.28
2023-05-15T12:28:26.652Z,101413.53
2023-05-15T12:30:54.606Z,101410.09
2023-05-15T12:33:21.933Z,101415.47
2023-05-15T12:36:00.868Z,101415.50
2023-05-15T12:38:29.288Z,101410.31
2023-05-15T12:40:57.233Z,101409.63
2023-05-15T12:43:26.284Z,101406.13
2023-05-15T12:45:54.776Z,101406.13
2023-05-15T12:48:22.280Z,101406.94
2023-05-15T12:50:50.112Z,101412.34
2023-05-15T12:53:17.737Z,101399.38
2023-05-15T12:55:46.818Z,101399.34
2023-05-15T12:58:18.798Z,101387.16
2023-05-15T13:00:46.745Z,101389.72
2023-05-15T13:03:14.276Z,101392.34
2023-05-15T13:05:45.575Z,101394.16
2023-05-15T13:08:17.817Z,101398.50
2023-05-15T13:10:46.130Z,101397.63
2023-05-15T13:13:14.055Z,101408.13
2023-05-15T13:15:44.807Z,101396.84
2023-05-15T13:18:14.214Z,101388.94
2023-05-15T13:20:43.452Z,101408.09
2023-05-15T13:23:13.368Z,101395.84
2023-05-15T13:25:40.759Z,101404.63
2023-05-15T13:28:10.536Z,101399.47
2023-05-15T13:30:42.176Z,101392.50
2023-05-15T13:33:11.838Z,101397.72
2023-05-15T13:35:40.336Z,101391.53
2023-05-15T13:38:10.348Z,101394.88
2023-05-15T13:40:38.785Z,101390.59
2023-05-15T13:43:08.762Z,101404.56
2023-05-15T13:45:39.076Z,101405.38
2023-05-15T13:48:06.558Z,101403.78
2023-05-15T13:50:33.855Z,101413.41
2023-05-15T13:53:01.046Z,101402.97
2023-05-15T13:55:28.247Z,101406.47
2023-05-15T13:57:55.365Z,101408.22
2023-05-15T14:00:22.542Z,101398.56
2023-05-15T14:02:49.786Z,101400.25
2023-05-15T14:05:17.332Z,101409.09
2023-05-15T14:07:44.948Z,101416.91
2023-05-15T14:10:12.135Z,101404.63
2023-05-15T14:12:40.022Z,101414.22
2023-05-15T14:15:08.069Z,101420.94
2023-05-15T14:17:35.354Z,101425.13
2023-05-15T14:20:02.913Z,101409.50
2023-05-15T14:22:30.105Z,101425.41
2023-05-15T14:24:57.249Z,101414.16
2023-05-15T14:27:24.404Z,101416.50
2023-05-15T14:29:51.960Z,101425.97
2023-05-15T14:32:19.201Z,101435.56
2023-05-15T14:34:46.568Z,101431.75
2023-05-15T14:37:13.803Z,101425.47
2023-05-15T14:39:41.023Z,101437.50
2023-05-15T14:42:08.290Z,101435.34
2023-05-15T14:44:35.391Z,101429.75
2023-05-15T14:47:10.869Z,101426.28
2023-05-15T14:49:38.394Z,101432.34
2023-05-15T14:52:08.948Z,101439.97
2023-05-15T14:54:37.539Z,101442.50
2023-05-15T14:57:06.570Z,101440.09
2023-05-15T14:59:34.100Z,101431.56
2023-05-15T15:02:01.445Z,101441.84
2023-05-15T15:04:30.614Z,101429.53
2023-05-15T15:06:57.813Z,101442.41
2023-05-15T15:09:28.398Z,101439.75
2023-05-15T15:11:56.457Z,101436.38
2023-05-15T15:14:23.592Z,101437.34
2023-05-15T15:16:50.976Z,101441.66
2023-05-15T15:19:20.092Z,101448.53
2023-05-15T15:21:47.987Z,101442.34
2023-05-15T15:24:15.527Z,101439.03
2023-05-15T15:26:42.660Z,101448.63
2023-05-15T15:29:09.736Z,101445.81
2023-05-15T15:31:37.721Z,101429.50
2023-05-15T15:34:05.869Z,101444.25
2023-05-15T15:36:33.881Z,101443.25
2023-05-15T15:39:01.462Z,101441.50
2023-05-15T15:41:30.757Z,101440.72
2023-05-15T15:43:57.876Z,101437.19
2023-05-15T15:46:25.093Z,101457.88
2023-05-15T15:48:52.260Z,101449.69
2023-05-15T15:51:19.283Z,101462.59
2023-05-15T15:53:47.749Z,101467.72
2023-05-15T15:56:14.887Z,101466.44
2023-05-15T15:58:42.005Z,101452.75
2023-05-15T16:01:09.298Z,101457.97
2023-05-15T16:03:37.373Z,101469.94
2023-05-15T16:06:05.122Z,101476.81
2023-05-15T16:08:32.412Z,101458.38
2023-05-15T16:10:59.552Z,101470.34
2023-05-15T16:13:26.709Z,101465.06
2023-05-15T16:15:53.844Z,101473.94
2023-05-15T16:18:21.313Z,101472.09
2023-05-15T16:20:48.568Z,101473.66
2023-05-15T16:23:16.232Z,101472.97
2023-05-15T16:25:44.651Z,101483.44
2023-05-15T16:28:12.132Z,101482.56
2023-05-15T16:30:48.984Z,101482.69
2023-05-15T16:33:19.876Z,101486.84
2023-05-15T16:35:47.282Z,101488.31
2023-05-15T16:38:14.758Z,101484.75
2023-05-15T16:40:41.899Z,101479.03
2023-05-15T16:43:09.096Z,101469.47
2023-05-15T16:45:37.459Z,101481.66
2023-05-15T16:48:05.489Z,101468.72
2023-05-15T16:50:36.269Z,101477.47
2023-05-15T16:53:04.891Z,101479.06
2023-05-15T16:55:32.196Z,101482.44
2023-05-15T16:57:59.345Z,101474.69
2023-05-15T17:00:26.916Z,101486.75
2023-05-15T17:02:54.875Z,101481.38
2023-05-15T17:05:22.253Z,101478.75
2023-05-15T17:07:49.458Z,101487.84
2023-05-15T17:10:16.596Z,101489.47
2023-05-15T17:12:43.984Z,101498.78
2023-05-15T17:15:11.717Z,101495.50
2023-05-15T17:17:39.006Z,101484.75
2023-05-15T17:20:07.457Z,101498.56
2023-05-15T17:22:34.876Z,101494.94
2023-05-15T17:25:02.143Z,101498.53
2023-05-15T17:27:29.551Z,101490.56
2023-05-15T17:29:57.022Z,101504.47
2023-05-15T17:32:24.216Z,101510.63
2023-05-15T17:34:51.535Z,101505.06
2023-05-15T17:37:18.874Z,101494.66
2023-05-15T17:39:46.143Z,101513.19
2023-05-15T17:42:13.267Z,101496.53
2023-05-15T17:44:40.405Z,101495.66
2023-05-15T17:47:09.768Z,101513.66
2023-05-15T17:49:38.396Z,101515.44
2023-05-15T17:52:07.140Z,101530.91
2023-05-15T17:54:34.774Z,101526.56
2023-05-15T17:57:02.578Z,101537.31
2023-05-15T17:59:31.152Z,101544.81
2023-05-15T18:01:58.606Z,101551.50
2023-05-15T18:04:26.065Z,101547.91
2023-05-15T18:06:53.308Z,101541.81
2023-05-15T18:09:24.825Z,101549.06
2023-05-15T18:11:52.233Z,101547.75
2023-05-15T18:14:19.433Z,101547.34
2023-05-15T18:16:46.559Z,101552.53
2023-05-15T18:19:13.829Z,101556.06
2023-05-15T18:21:41.062Z,101556.22
2023-05-15T18:24:08.258Z,101558.66
2023-05-15T18:26:36.222Z,101564.69
2023-05-15T18:29:03.586Z,101562.13
2023-05-15T18:31:30.795Z,101569.06
2023-05-15T18:33:57.977Z,101554.78
2023-05-15T18:36:25.091Z,101569.25
2023-05-15T18:38:52.271Z,101573.69
2023-05-15T18:41:19.341Z,101571.22
2023-05-15T18:43:46.511Z,101580.34
2023-05-15T18:46:13.678Z,101585.78
2023-05-15T18:48:41.066Z,101581.22
2023-05-15T18:51:09.652Z,101592.44
2023-05-15T18:53:37.588Z,101580.25
2023-05-15T18:56:05.067Z,101582.84
2023-05-15T18:58:32.221Z,101588.63
2023-05-15T19:01:00.115Z,101573.03
2023-05-15T19:03:27.443Z,101590.22
2023-05-15T19:05:54.584Z,101587.53
2023-05-15T19:08:21.724Z,101583.41
2023-05-15T19:10:49.156Z,101588.75
2023-05-15T19:13:16.353Z,101587.97
2023-05-15T19:15:53.129Z,101581.78
2023-05-15T19:18:20.340Z,101594.03
2023-05-15T19:20:52.018Z,101590.78
2023-05-15T19:23:20.701Z,101582.84
2023-05-15T19:25:48.020Z,101591.69
2023-05-15T19:28:15.155Z,101596.44
2023-05-15T19:30:42.637Z,101593.13
2023-05-15T19:33:09.831Z,101609.72
2023-05-15T19:35:37.906Z,101603.28
2023-05-15T19:38:05.552Z,101607.72
2023-05-15T19:40:34.771Z,101617.09
2023-05-15T19:43:02.382Z,101611.41
2023-05-15T19:45:30.455Z,101621.09
2023-05-15T19:47:58.980Z,101614.25
2023-05-15T19:50:26.783Z,101621.22
2023-05-15T19:52:54.043Z,101633.53
2023-05-15T19:55:21.439Z,101650.34
2023-05-15T19:57:48.645Z,101651.19
2023-05-15T20:00:16.050Z,101650.19
2023-05-15T20:02:43.297Z,101660.22
2023-05-15T20:05:10.451Z,101672.03
2023-05-15T20:07:38.353Z,101668.31
2023-05-15T20:10:06.519Z,101677.91
2023-05-15T20:12:33.699Z,101682.94
2023-05-15T20:15:00.859Z,101685.41
2023-05-15T20:17:28.040Z,101704.44
2023-05-15T20:19:58.056Z,101705.03
2023-05-15T20:22:25.193Z,101719.41
2023-05-15T20:24:52.323Z,101717.56
2023-05-15T20:27:19.531Z,101712.19
2023-05-15T20:29:46.869Z,101720.16
2023-05-15T20:32:13.988Z,101726.03
2023-05-15T20:34:46.663Z,101711.47
2023-05-15T20:37:14.025Z,101730.47
2023-05-15T20:39:41.237Z,101734.22
2023-05-15T20:42:08.410Z,101735.69
2023-05-15T20:44:37.389Z,101724.47
2023-05-15T20:47:06.126Z,101730.72
2023-05-15T20:49:33.458Z,101732.13
2023-05-15T20:52:00.857Z,101726.88
2023-05-15T20:54:28.000Z,101737.41
2023-05-15T20:56:55.180Z,101744.09
2023-05-15T20:59:22.235Z,101737.19
2023-05-15T21:01:49.371Z,101748.50
2023-05-15T21:04:16.580Z,101739.13
2023-05-15T21:06:43.739Z,101742.75
2023-05-15T21:09:10.905Z,101748.59
2023-05-15T21:11:38.041Z,101747.16
2023-05-15T21:14:06.317Z,101761.06
2023-05-15T21:16:33.658Z,101765.28
2023-05-15T21:19:01.328Z,101763.59
2023-05-15T21:21:28.423Z,101755.63
2023-05-15T21:23:55.514Z,101768.34
2023-05-15T21:26:22.636Z,101766.03
2023-05-15T21:28:49.877Z,101760.03
2023-05-15T21:31:16.964Z,101767.75
2023-05-15T21:33:44.486Z,101765.09
2023-05-15T21:36:11.828Z,101779.19
2023-05-15T21:38:38.922Z,101774.81
2023-05-15T21:41:06.524Z,101783.34
2023-05-15T21:43:33.689Z,101784.03
2023-05-15T21:46:00.915Z,101784.34
2023-05-15T21:48:28.057Z,101777.25
2023-05-15T21:50:56.664Z,101788.41
2023-05-15T21:53:26.926Z,101779.09
2023-05-15T21:56:01.118Z,101778.25
2023-05-15T21:58:28.803Z,101775.66
2023-05-15T22:00:56.177Z,101789.66
2023-05-15T22:03:23.675Z,101786.84
2023-05-15T22:05:52.793Z,101792.03
2023-05-15T22:08:20.433Z,101788.41
2023-05-15T22:10:50.591Z,101792.78
2023-05-15T22:13:17.759Z,101793.72
2023-05-15T22:15:44.858Z,101807.56
2023-05-15T22:18:13.013Z,101796.94
2023-05-15T22:20:40.080Z,101800.41
2023-05-15T22:23:07.942Z,101789.34
2023-05-15T22:25:35.074Z,101806.78
2023-05-15T22:28:02.173Z,101805.06
2023-05-15T22:30:29.465Z,101805.84
2023-05-15T22:32:56.757Z,101806.63
2023-05-15T22:35:24.075Z,101802.16
2023-05-15T22:37:51.148Z,101792.72
2023-05-15T22:40:18.877Z,101800.94
2023-05-15T22:42:50.150Z,101802.97
2023-05-15T22:45:18.584Z,101809.84
2023-05-15T22:47:46.150Z,101808.13
2023-05-15T22:50:14.223Z,101817.69
2023-05-15T22:52:41.342Z,101810.66
2023-05-15T22:55:10.376Z,101812.28
2023-05-15T22:57:37.459Z,101818.31
2023-05-15T23:00:07.124Z,101821.25
2023-05-15T23:02:34.859Z,101821.94
2023-05-15T23:05:02.108Z,101816.84
2023-05-15T23:07:29.201Z,101817.38
2023-05-15T23:09:56.388Z,101827.91
2023-05-15T23:12:23.468Z,101827.19
2023-05-15T23:14:50.645Z,101831.69
2023-05-15T23:17:17.808Z,101830.06
2023-05-15T23:19:44.906Z,101828.44
2023-05-15T23:22:12.366Z,101823.72
2023-05-15T23:24:39.440Z,101837.47
2023-05-15T23:27:07.894Z,101826.25
2023-05-15T23:29:36.078Z,101829.66
2023-05-15T23:32:03.554Z,101831.84
2023-05-15T23:34:30.768Z,101826.50
2023-05-15T23:36:57.916Z,101826.31
2023-05-15T23:39:25.019Z,101837.50
2023-05-15T23:41:52.069Z,101847.50
2023-05-15T23:44:19.164Z,101841.50
2023-05-15T23:46:46.319Z,101839.56
2023-05-15T23:49:13.664Z,101837.16
2023-05-15T23:51:40.906Z,101840.72
2023-05-15T23:54:07.940Z,101841.50
2023-05-15T23:56:35.165Z,101844.72
2023-05-15T23:59:02.258Z,101847.53
